Burns Pinion Ridge Reserve, California Weather observations

Data are for 10 minute period ending at time listed.
 Day   Time   Solar   Ave.   Ave.  Ave.  Vector  Max.   Baro.   Total    
  of    of     Rad.   Air    Rel.  Wind   Wind   Wind  Press.  Precip.   
Year   Day            Temp.  Hum.  Speed  Dir.   Gust                    
2016   (PST)  Kw/m2    F      %     mph   deg.    mph    mb.     in.     
-------------------------------------------------------------------------
 340    5:10   0.00   41.3    29    2.2   323     5.3   871.5    0.00 
 340    5:20   0.00   40.7    30    1.7   330     3.4   871.5    0.00 
 340    5:30   0.00   39.8    30    1.2   353     2.6   871.6    0.00 
 340    5:40   0.00   40.3    30    0.6   200     3.6   871.5    0.00 
 340    5:50   0.00   42.1    28    2.0   127     5.8   871.4    0.00 
 340    6:00   0.00   41.8    28    1.9   349     5.7   871.6    0.00 
 340    6:10   0.00   40.4    30    2.1   350     5.0   871.7    0.00 
 340    6:20   0.00   39.6    31    1.0    36     3.5   871.8    0.00 
 340    6:30   0.00   39.1    31    1.7    27     4.2   871.8    0.00 
 340    6:40   0.00   39.1    31    0.7    91     2.3   871.9    0.00 
 340    6:50   0.01   41.0    29    2.8    66     6.9   871.9    0.00 
 340    7:00   0.02   45.8    25    4.6    96     8.2   872.0    0.00 
 340    7:10   0.04   48.7    22    2.9    97     8.0   872.2    0.00 
 340    7:20   0.07   49.6    21    2.9   106     5.3   872.4    0.00 
 340    7:30   0.07   50.5    21    2.7    75     6.5   872.5    0.00 
 340    7:40   0.11   50.6    21    1.2    65     2.9   872.7    0.00 
 340    7:50   0.14   51.8    20    2.2     9     4.5   872.9    0.00 
 340    8:00   0.12   51.5    20    3.6    39     7.9   873.1    0.00 
 340    8:10   0.16   51.2    21    3.0    38     6.1   873.1    0.00 
 340    8:20   0.14   51.5    21    4.2    46     8.5   873.0    0.00 
 340    8:30   0.23   51.8    21    4.3    45     6.9   873.1    0.00 
 340    8:40   0.20   52.8    20    2.8    55     6.8   873.2    0.00 
 340    8:50   0.27   53.2    20    3.0    77     5.6   873.1    0.00 
 340    9:00   0.29   53.5    19    3.1    81     7.7   873.1    0.00 
 340    9:10   0.29   54.6    18    3.3   110     6.7   873.1    0.00 
 340    9:20   0.42   54.6    18    3.0   115     6.3   873.2    0.00 
 340    9:30   0.42   56.2    17    1.8    83     4.5   873.2    0.00 
 340    9:40   0.26   55.7    18    3.9   163     8.4   873.0    0.00 
 340    9:50   0.26   54.9    18    5.1   145     7.2   873.1    0.00 
 340   10:00   0.35   55.1    18    3.7   142     5.6   873.4    0.00 
 340   10:10   0.54   56.4    17    2.9   152     5.0   873.2    0.00 
 340   10:20   0.33   56.5    17    3.5   123     6.6   873.3    0.00 
 340   10:30   0.24   55.4    18    2.2   124     3.7   873.3    0.00 
 340   10:40   0.45   57.1    17    1.5   205     3.4   873.2    0.00 
 340   10:50   0.46   57.8    16    2.0   293     4.8   873.1    0.00 
 340   11:00   0.40   59.5    15    1.4   261     4.8   872.9    0.00 
 340   11:10   0.31   58.9    16    5.2   148    11.8   872.9    0.00 
 340   11:20   0.29   57.3    17    4.5   200    12.4   872.7    0.00 
 340   11:30   0.30   58.3    16    3.9   218     7.3   872.3    0.00 
 340   11:40   0.25   58.5    16    6.7   157    11.9   872.3    0.00 
 340   11:50   0.25   57.4    17    5.7   184    10.2   872.1    0.00 
 340   12:00   0.22   57.0    17    4.9   196     7.1   872.0    0.00 
 340   12:10   0.20   56.7    17    6.3   198    11.2   872.0    0.00 
 340   12:20   0.29   56.5    18    7.3   203    11.3   872.0    0.00 
 340   12:30   0.33   57.2    17    6.4   223    10.6   872.0    0.00 
 340   12:40   0.24   57.7    17    6.0   190    11.3   872.0    0.00 
 340   12:50   0.35   58.0    17    5.7   180     8.8   871.9    0.00 
 340   13:00   0.26   58.0    17    4.6   210     7.5   871.8    0.00 
 340   13:10   0.23   57.4    17    6.1   196    10.3   871.7    0.00 
 340   13:20   0.23   57.9    17    5.6   151     9.3   871.7    0.00 
 340   13:30   0.22   57.9    17    4.8   189     7.0   871.6    0.00 
 340   13:40   0.35   58.8    16    5.2   195     8.0   871.5    0.00 
 340   13:50   0.45   59.6    16    4.5   200     7.8   871.4    0.00 
 340   14:00   0.47   61.2    15    6.1   186    11.4   871.5    0.00 
 340   14:10   0.34   60.1    16    6.5   202    11.0   871.5    0.00 
 340   14:20   0.30   58.7    16    5.5   208    10.2   871.7    0.00 
 340   14:30   0.30   59.8    16    4.6   194     7.9   871.8    0.00 
 340   14:40   0.34   59.8    16    5.1   196     7.5   871.8    0.00 
 340   14:50   0.29   60.5    15    4.2   194     9.3   871.8    0.00 
 340   15:00   0.27   61.1    15    3.4   193     6.1   871.8    0.00 
 340   15:10   0.24   61.8    15    3.3   180     5.8   871.7    0.00 
 340   15:20   0.21   62.1    14    3.1   179     6.4   871.7    0.00 
 340   15:30   0.18   60.9    15    3.2   196     5.6   871.7    0.00 
 340   15:40   0.15   60.5    15    3.1   195     5.0   871.7    0.00 
 340   15:50   0.11   59.6    16    2.3   186     5.1   871.6    0.00 
 340   16:00   0.05   58.5    17    3.5   191     5.3   871.6    0.00 
 340   16:10   0.02   55.2    19    3.3   191     5.0   871.5    0.00 
 340   16:20   0.01   53.3    20    1.8   221     2.9   871.6    0.00 
 340   16:30   0.01   50.6    21    0.3   198     1.0   871.7    0.00 
 340   16:40   0.00   48.4    23    0.4   160     1.2   871.7    0.00 
 340   16:50   0.00   46.7    25    0.0   237     0.1   871.8    0.00 
 340   17:00   0.00   45.3    26    0.0     0     0.0   871.9    0.00 
 340   17:10   0.00   44.7    26    1.9   130     3.1   871.9    0.00 
 340   17:20   0.00   45.0    27    1.0    68     2.1   872.0    0.00 
 340   17:30   0.00   44.9    26    0.8    60     2.0   872.1    0.00 
 340   17:40   0.00   44.7    27    2.5   128     4.5   872.2    0.00 
 340   17:50   0.00   46.0    26    2.2   150     3.0   872.2    0.00 
 340   18:00   0.00   45.5    27    2.6   248     4.0   872.3    0.00 
 340   18:10   0.00   44.7    28    1.2   275     2.0   872.3    0.00 
 340   18:20   0.00   43.7    28    2.2   196     3.9   872.3    0.00 
 340   18:30   0.00   42.6    30    2.2   194     3.4   872.5    0.00 
 340   18:40   0.00   42.7    30    2.9   183     4.2   872.5    0.00 
 340   18:50   0.00   44.6    29    3.1   180     5.1   872.3    0.00 
 340   19:00   0.00   44.2    30    3.8   195     5.8   872.3    0.00 
 340   19:10   0.00   45.1    28    3.0   207     5.1   872.1    0.00 
 340   19:20   0.00   42.6    30    0.6   332     1.9   872.1    0.00 
 340   19:30   0.00   40.7    32    0.2   328     1.2   872.4    0.00 
 340   19:40   0.00   39.5    33    0.0     0     0.0   872.4    0.00 
 340   19:50   0.00   38.4    34    0.9   283     2.2   872.5    0.00 
 340   20:00   0.00   38.2    34    1.7   257     2.9   872.5    0.00 
 340   20:10   0.00   38.1    35    2.7   243     3.9   872.5    0.00 
 340   20:20   0.00   39.4    34    3.5   231     4.3   872.4    0.00 
 340   20:30   0.00   41.4    33    3.7   222     4.8   872.4    0.00 
 340   20:40   0.00   42.8    31    3.0   227     3.9   872.4    0.00 
 340   20:50   0.00   41.6    32    3.1   212     4.9   872.3    0.00 
 340   21:00   0.00   41.8    32    3.1   205     5.6   872.2    0.00 
 340   21:10   0.00   45.2    30    4.6   212     7.4   872.3    0.00 
 340   21:20   0.00   48.2    28    6.3   212     9.2   872.2    0.00 
 340   21:30   0.00   48.6    28    4.9   215     8.6   872.2    0.00 
 340   21:40   0.00   47.3    28    3.8   220     6.4   872.2    0.00 
 340   21:50   0.00   47.0    28    4.9   218     9.7   872.2    0.00 
 340   22:00   0.00   47.8    28    7.3   213    11.1   872.2    0.00 
 340   22:10   0.00   47.5    28    7.2   215    11.0   872.2    0.00 
 340   22:20   0.00   47.6    30    7.0   218     9.7   872.2    0.00 
 340   22:30   0.00   47.6    30    7.0   222     9.9   872.3    0.00 
 340   22:40   0.00   48.1    30    6.9   218    11.0   872.4    0.00 
 340   22:50   0.00   47.8    30    6.3   224    11.1   872.4    0.00 
 340   23:00   0.00   49.4    27    7.4   206    12.1   872.2    0.00 
 340   23:10   0.00   49.4    27    4.1   206     9.3   872.0    0.00 
 340   23:20   0.00   48.7    28    4.4   180     9.9   871.9    0.00 
 340   23:30   0.00   48.1    29    5.5   189     8.5   871.7    0.00 
 340   23:40   0.00   47.9    30    7.7   207    10.6   871.7    0.00 
 340   23:50   0.00   47.4    31    8.0   198    11.0   871.6    0.00 
 341    0:00   0.00   47.3    32    6.1   212    10.3   871.5    0.00 
 341    0:10   0.00   46.3    33    3.8   234     7.1   871.5    0.00 
 341    0:20   0.00   45.2    33    3.9   247     6.7   871.5    0.00 
 341    0:30   0.00   44.4    34    4.7   222     7.4   871.4    0.00 
 341    0:40   0.00   45.2    34    4.4   207     7.5   871.5    0.00 
 341    0:50   0.00   43.4    35    1.8   294     5.1   871.5    0.00 
 341    1:00   0.00   42.5    37    4.1   193     7.7   871.4    0.00 
 341    1:10   0.00   44.4    35    4.0   188     8.2   871.3    0.00 
 341    1:20   0.00   44.2    35    4.0   202     8.8   871.3    0.00 
 341    1:30   0.00   46.0    33    6.3   202     9.1   871.2    0.00 
 341    1:40   0.00   45.9    33    3.7   211     8.2   871.2    0.00 
 341    1:50   0.00   45.0    34    4.6   208     9.4   871.2    0.00 
 341    2:00   0.00   46.6    32    9.2   195    13.6   871.2    0.00 
 341    2:10   0.00   46.9    32    7.8   194    11.7   871.0    0.00 
 341    2:20   0.00   47.0    30    6.9   204    10.2   870.8    0.00 
 341    2:30   0.00   46.1    32    5.5   219    11.5   870.8    0.00 
 341    2:40   0.00   47.2    30    7.3   216    12.1   870.8    0.00 
 341    2:50   0.00   47.2    32    7.3   217    10.8   870.7    0.00 
 341    3:00   0.00   46.8    33    6.6   223    10.5   870.6    0.00 
 341    3:10   0.00   46.5    33    6.0   212    10.5   870.5    0.00 
 341    3:20   0.00   45.4    34    2.3   355     5.1   870.4    0.00 
 341    3:30   0.00   44.4    34    2.7   289     6.6   870.6    0.00 
 341    3:40   0.00   44.3    35    2.5     6     6.2   870.5    0.00 
 341    3:50   0.00   42.8    37    1.4   288     4.6   870.6    0.00 
 341    4:00   0.00   42.5    36    2.8   138     5.8   870.5    0.00 
 341    4:10   0.00   44.6    30    2.4   156     5.8   870.5    0.00 
 341    4:20   0.00   44.4    29    2.0    32     5.0   870.5    0.00 
 341    4:30   0.00   46.6    21    3.2    60     6.0   870.4    0.00 
 341    4:40   0.00   46.7    26    2.4   263     6.1   870.7    0.00 
 341    4:50   0.00   45.3    29    2.0   353     5.5   870.6    0.00 
 341    5:00   0.00   45.9    26    3.2   346     7.1   870.7    0.00 

Return to Burns Pinion Ridge Reserve graphs page.


Western Regional Climate Center,wrcc@dri.edu